createdAt,value
2018-12-14T00:00:50.946Z,13.67
2018-12-14T00:02:57.291Z,13.43
2018-12-14T00:05:00.977Z,15.97
2018-12-14T00:07:06.797Z,13.77
2018-12-14T00:09:15.511Z,15.37
2018-12-14T00:11:24.208Z,13.70
2018-12-14T00:13:29.459Z,13.40
2018-12-14T00:15:33.532Z,13.30
2018-12-14T00:17:37.207Z,15.43
2018-12-14T00:19:46.227Z,18.73
2018-12-14T00:21:55.584Z,14.00
2018-12-14T00:23:59.984Z,11.40
2018-12-14T00:26:08.991Z,14.30
2018-12-14T00:28:18.208Z,13.80
2018-12-14T00:30:21.619Z,14.60
2018-12-14T00:32:30.489Z,12.40
2018-12-14T00:34:38.844Z,12.70
2018-12-14T00:36:47.793Z,13.63
2018-12-14T00:38:51.807Z,14.37
2018-12-14T00:40:55.694Z,15.97
2018-12-14T00:43:04.459Z,13.20
2018-12-14T00:45:08.335Z,14.80
2018-12-14T00:47:14.297Z,14.07
2018-12-14T00:49:18.010Z,16.23
2018-12-14T00:51:22.014Z,12.50
2018-12-14T00:53:31.779Z,12.50
2018-12-14T00:55:35.870Z,14.17
2018-12-14T00:57:39.821Z,13.97
2018-12-14T00:59:43.909Z,15.23
2018-12-14T01:01:47.879Z,12.10
2018-12-14T01:03:51.847Z,12.93
2018-12-14T01:05:55.602Z,13.77
2018-12-14T01:08:04.252Z,12.80
2018-12-14T01:10:13.372Z,13.67
2018-12-14T01:12:19.304Z,15.53
2018-12-14T01:14:28.132Z,15.07
2018-12-14T01:16:32.525Z,14.67
2018-12-14T01:18:41.572Z,14.13
2018-12-14T01:20:45.544Z,14.83
2018-12-14T01:22:54.217Z,14.13
2018-12-14T01:24:58.164Z,14.70
2018-12-14T01:27:04.060Z,17.73
2018-12-14T01:29:12.643Z,15.20
2018-12-14T01:31:21.554Z,13.70
2018-12-14T01:33:30.301Z,15.83
2018-12-14T01:35:34.436Z,14.90
2018-12-14T01:37:38.187Z,15.93
2018-12-14T01:39:41.952Z,15.47
2018-12-14T01:41:45.973Z,16.60
2018-12-14T01:43:49.675Z,13.70
2018-12-14T01:45:59.232Z,16.00
2018-12-14T01:48:08.400Z,15.63
2018-12-14T01:50:12.631Z,17.37
2018-12-14T01:52:19.051Z,17.13
2018-12-14T01:54:22.753Z,15.00
2018-12-14T01:56:31.364Z,17.13
2018-12-14T01:58:40.136Z,18.20
2018-12-14T02:00:46.115Z,20.37
2018-12-14T02:02:54.963Z,18.30
2018-12-14T02:05:04.444Z,15.37
2018-12-14T02:07:12.902Z,17.00
2018-12-14T02:09:19.144Z,16.07
2018-12-14T02:11:27.948Z,19.53
2018-12-14T02:13:36.841Z,17.37
2018-12-14T02:15:40.850Z,19.77
2018-12-14T02:17:44.719Z,16.10
2018-12-14T02:19:53.301Z,17.47
2018-12-14T02:21:57.465Z,18.23
2018-12-14T02:24:01.405Z,17.23
2018-12-14T02:26:07.297Z,18.30
2018-12-14T02:28:16.206Z,20.57
2018-12-14T02:30:36.025Z,20.27
2018-12-14T02:32:40.271Z,17.00
2018-12-14T02:34:44.072Z,17.00
2018-12-14T02:36:52.865Z,18.90
2018-12-14T02:38:56.939Z,15.93
2018-12-14T02:41:05.787Z,18.70
2018-12-14T02:43:09.863Z,12.40
2018-12-14T02:45:21.004Z,16.80
2018-12-14T02:47:33.393Z,15.10
2018-12-14T02:49:43.081Z,18.40
2018-12-14T02:51:51.761Z,16.30
2018-12-14T02:54:00.600Z,15.03
2018-12-14T02:56:04.931Z,13.90
2018-12-14T02:58:13.450Z,16.73
2018-12-14T03:00:17.375Z,15.43
2018-12-14T03:02:21.322Z,14.60
2018-12-14T03:04:30.024Z,17.23
2018-12-14T03:06:38.976Z,14.73
2018-12-14T03:08:42.965Z,15.93
2018-12-14T03:10:51.614Z,13.50
2018-12-14T03:12:55.821Z,16.93
2018-12-14T03:15:04.937Z,16.83
2018-12-14T03:17:13.911Z,16.20
2018-12-14T03:21:26.174Z,15.37
2018-12-14T03:23:35.304Z,14.03
2018-12-14T03:25:44.369Z,15.00
2018-12-14T03:27:48.309Z,13.90
2018-12-14T03:29:56.959Z,14.37
2018-12-14T03:32:05.775Z,13.23
2018-12-14T03:34:14.464Z,11.53
2018-12-14T03:36:23.307Z,11.53
2018-12-14T03:38:32.406Z,11.73
2018-12-14T03:40:36.235Z,15.63
2018-12-14T03:42:45.088Z,12.60
2018-12-14T03:44:54.937Z,11.37
2018-12-14T03:47:01.023Z,15.93
2018-12-14T03:49:04.707Z,10.53
2018-12-14T03:51:08.707Z,11.30
2018-12-14T03:53:17.543Z,13.27
2018-12-14T03:55:21.760Z,15.60
2018-12-14T03:57:25.735Z,10.63
2018-12-14T03:59:34.312Z,10.03
2018-12-14T04:01:38.594Z,13.80
2018-12-14T04:03:42.381Z,12.53
2018-12-14T04:05:50.780Z,12.10
2018-12-14T04:07:59.524Z,11.80
2018-12-14T04:10:04.743Z,11.03
2018-12-14T04:12:13.343Z,13.60
2018-12-14T04:14:17.447Z,11.00
2018-12-14T04:16:26.016Z,11.60
2018-12-14T04:18:34.806Z,11.07
2018-12-14T04:28:54.200Z,11.33
2018-12-14T04:31:02.847Z,11.67
2018-12-14T04:33:07.002Z,11.70
2018-12-14T04:35:15.611Z,11.63
2018-12-14T04:37:24.534Z,10.83
2018-12-14T04:39:28.428Z,9.67
2018-12-14T04:41:32.283Z,10.47
2018-12-14T04:43:40.756Z,13.93
2018-12-14T04:45:46.818Z,12.57
2018-12-14T04:47:50.916Z,11.37
2018-12-14T04:49:54.898Z,9.70
2018-12-14T04:52:02.710Z,9.73
2018-12-14T04:54:07.033Z,10.30
2018-12-14T04:56:10.705Z,10.07
2018-12-14T04:58:14.642Z,11.13
2018-12-14T05:00:18.509Z,12.33
2018-12-14T05:02:22.372Z,9.87
2018-12-14T05:04:26.327Z,8.77
2018-12-14T05:06:31.534Z,12.60
2018-12-14T05:08:41.165Z,11.30
2018-12-14T05:10:49.984Z,10.80
2018-12-14T05:12:56.254Z,10.73
2018-12-14T05:15:05.440Z,10.53
2018-12-14T05:17:09.785Z,10.17
2018-12-14T05:19:13.791Z,9.80
2018-12-14T05:21:22.332Z,11.57
2018-12-14T05:23:31.037Z,13.50
2018-12-14T05:25:39.914Z,11.13
2018-12-14T05:29:48.748Z,10.47
2018-12-14T05:31:52.371Z,10.03
2018-12-14T05:33:56.273Z,10.40
2018-12-14T05:36:00.290Z,9.83
2018-12-14T05:38:09.971Z,10.23
2018-12-14T05:40:18.882Z,9.97
2018-12-14T05:42:24.997Z,11.60
2018-12-14T05:44:33.695Z,9.33
2018-12-14T05:46:37.618Z,9.77
2018-12-14T05:48:46.536Z,12.40
2018-12-14T05:50:50.665Z,13.57
2018-12-14T05:52:59.346Z,9.30
2018-12-14T05:55:03.748Z,23.10
2018-12-14T05:57:12.079Z,9.97
2018-12-14T05:59:20.773Z,10.80
2018-12-14T06:01:29.468Z,11.60
2018-12-14T06:03:35.681Z,10.87
2018-12-14T06:05:39.672Z,11.40
2018-12-14T06:07:45.516Z,10.43
2018-12-14T06:09:53.951Z,9.53
2018-12-14T06:12:00.199Z,9.80
2018-12-14T06:14:08.969Z,9.63
2018-12-14T06:16:33.049Z,9.63
2018-12-14T06:18:41.670Z,9.47
2018-12-14T06:20:50.571Z,10.77
2018-12-14T06:22:54.770Z,10.70
2018-12-14T06:24:59.023Z,9.77
2018-12-14T06:27:07.539Z,12.00
2018-12-14T06:29:16.426Z,11.47
2018-12-14T06:31:20.649Z,9.23
2018-12-14T06:33:26.495Z,10.13
2018-12-14T06:35:30.482Z,9.23
2018-12-14T06:37:34.170Z,12.77
2018-12-14T06:39:40.154Z,10.57
2018-12-14T06:41:46.056Z,11.27
2018-12-14T06:43:54.601Z,11.90
2018-12-14T06:45:58.847Z,10.33
2018-12-14T06:48:07.563Z,11.37
2018-12-14T06:50:16.515Z,12.20
2018-12-14T06:52:20.692Z,11.00
2018-12-14T06:54:24.767Z,11.10
2018-12-14T06:56:30.821Z,10.90
2018-12-14T06:58:34.272Z,9.67
2018-12-14T07:00:42.794Z,11.53
2018-12-14T07:02:51.656Z,9.37
2018-12-14T07:04:55.705Z,12.10
2018-12-14T07:07:04.365Z,10.87
2018-12-14T07:09:13.100Z,11.40
2018-12-14T07:11:17.280Z,11.83
2018-12-14T07:13:25.924Z,9.60
2018-12-14T07:15:30.211Z,11.27
2018-12-14T07:17:38.968Z,11.73
2018-12-14T07:19:47.891Z,9.60
2018-12-14T07:21:51.988Z,11.17
2018-12-14T07:23:56.177Z,10.77
2018-12-14T07:25:59.983Z,10.50
2018-12-14T07:28:03.853Z,11.83
2018-12-14T07:32:10.615Z,13.03
2018-12-14T07:34:19.080Z,12.20
2018-12-14T07:36:23.159Z,13.70
2018-12-14T07:38:31.929Z,11.87
2018-12-14T07:40:36.053Z,14.27
2018-12-14T07:42:44.804Z,12.90
2018-12-14T07:44:48.680Z,11.87
2018-12-14T07:46:57.136Z,12.83
2018-12-14T07:49:05.853Z,13.20
2018-12-14T07:51:14.712Z,16.60
2018-12-14T07:53:23.549Z,12.97
2018-12-14T07:55:27.501Z,12.93
2018-12-14T07:57:31.344Z,13.70
2018-12-14T07:59:40.176Z,13.70
2018-12-14T08:01:44.351Z,13.60
2018-12-14T08:03:48.184Z,16.27
2018-12-14T08:05:56.748Z,13.87
2018-12-14T08:08:05.572Z,16.03
2018-12-14T08:10:09.669Z,13.60
2018-12-14T08:12:18.216Z,14.03
2018-12-14T08:14:24.186Z,16.57
2018-12-14T08:16:28.203Z,15.37
2018-12-14T08:18:32.097Z,14.10
2018-12-14T08:20:35.997Z,14.63
2018-12-14T08:22:40.011Z,14.57
2018-12-14T08:24:48.680Z,12.10
2018-12-14T08:26:52.788Z,16.63
2018-12-14T08:29:01.525Z,18.17
2018-12-14T08:33:28.435Z,16.03
2018-12-14T08:35:32.484Z,19.17
2018-12-14T08:37:41.243Z,16.37
2018-12-14T08:39:50.072Z,18.97
2018-12-14T08:41:58.791Z,16.03
2018-12-14T08:44:02.863Z,16.00
2018-12-14T08:46:11.824Z,16.40
2018-12-14T08:48:20.580Z,15.17
2018-12-14T08:50:29.286Z,16.30
2018-12-14T08:52:33.502Z,16.53
2018-12-14T08:54:37.384Z,16.40
2018-12-14T08:56:46.019Z,18.67
2018-12-14T08:58:55.001Z,18.67
2018-12-14T09:00:59.149Z,16.20
2018-12-14T09:03:08.013Z,17.83
2018-12-14T09:05:12.387Z,17.23
2018-12-14T09:07:24.587Z,18.60
2018-12-14T09:09:27.344Z,16.90
2018-12-14T09:11:36.096Z,16.93
2018-12-14T09:13:39.804Z,17.00
2018-12-14T09:15:43.662Z,18.23
2018-12-14T09:17:47.492Z,18.87
2018-12-14T09:19:51.704Z,16.53
2018-12-14T09:21:55.218Z,16.47
2018-12-14T09:23:58.995Z,22.33
2018-12-14T09:26:02.788Z,19.83
2018-12-14T09:28:06.544Z,17.97
2018-12-14T09:30:15.057Z,17.80
2018-12-14T09:32:20.824Z,16.23
2018-12-14T09:34:29.531Z,17.83
2018-12-14T09:36:38.364Z,19.67
2018-12-14T09:38:42.627Z,17.90
2018-12-14T09:40:46.503Z,17.90
2018-12-14T09:42:50.357Z,15.17
2018-12-14T09:44:58.879Z,17.03
2018-12-14T09:47:05.125Z,16.30
2018-12-14T09:49:13.645Z,15.27
2018-12-14T09:51:17.715Z,19.67
2018-12-14T09:53:21.616Z,17.53
2018-12-14T09:55:27.614Z,18.97
2018-12-14T09:57:31.601Z,16.47
2018-12-14T09:59:35.444Z,17.00
2018-12-14T10:01:44.025Z,15.63
2018-12-14T10:03:48.356Z,16.57
2018-12-14T10:05:54.150Z,17.07
2018-12-14T10:08:02.871Z,18.07
2018-12-14T10:10:11.792Z,19.40
2018-12-14T10:12:15.752Z,17.03
2018-12-14T10:14:24.377Z,15.97
2018-12-14T10:16:33.186Z,17.63
2018-12-14T10:18:43.328Z,16.93
2018-12-14T10:20:49.588Z,16.40
2018-12-14T10:22:53.254Z,16.47
2018-12-14T10:25:01.896Z,17.97
2018-12-14T10:27:10.537Z,17.33
2018-12-14T10:29:19.380Z,17.23
2018-12-14T10:31:23.546Z,20.03
2018-12-14T10:33:29.555Z,18.00
2018-12-14T10:35:33.457Z,16.77
2018-12-14T10:37:42.333Z,18.10
2018-12-14T10:39:51.028Z,17.03
2018-12-14T10:41:59.916Z,16.27
2018-12-14T10:44:08.861Z,18.97
2018-12-14T10:46:13.144Z,17.70
2018-12-14T10:48:17.268Z,19.33
2018-12-14T10:50:25.965Z,16.70
2018-12-14T10:52:30.037Z,18.20
2018-12-14T10:54:39.856Z,15.07
2018-12-14T10:56:48.569Z,17.27
2018-12-14T10:58:52.632Z,16.77
2018-12-14T11:01:02.211Z,18.00
2018-12-14T11:03:06.428Z,14.23
2018-12-14T11:05:15.016Z,18.40
2018-12-14T11:07:19.072Z,17.27
2018-12-14T11:09:27.620Z,17.17
2018-12-14T11:11:31.621Z,15.73
2018-12-14T11:13:35.597Z,14.90
2018-12-14T11:15:44.200Z,16.70
2018-12-14T11:17:48.292Z,17.13
2018-12-14T11:19:52.245Z,15.97
2018-12-14T11:21:56.139Z,17.43
2018-12-14T11:24:00.025Z,18.23
2018-12-14T11:26:03.816Z,18.67
2018-12-14T11:28:12.495Z,17.27
2018-12-14T11:30:16.444Z,17.30
2018-12-14T11:32:22.600Z,12.13
2018-12-14T11:34:29.721Z,19.70
2018-12-14T11:36:32.152Z,17.03
2018-12-14T11:38:36.165Z,15.50
2018-12-14T11:40:44.869Z,15.40
2018-12-14T11:42:49.135Z,18.10
2018-12-14T11:44:57.866Z,17.00
2018-12-14T11:47:03.892Z,14.10
2018-12-14T11:49:12.761Z,19.77
2018-12-14T11:51:21.394Z,14.67
2018-12-14T11:53:30.410Z,14.47
2018-12-14T11:55:39.378Z,19.87
2018-12-14T11:57:43.316Z,17.33
2018-12-14T11:59:47.168Z,14.67
2018-12-14T12:01:51.133Z,15.00
2018-12-14T12:03:59.728Z,17.30
2018-12-14T12:06:08.482Z,21.93
2018-12-14T12:08:17.928Z,13.43
2018-12-14T12:10:27.072Z,15.87
2018-12-14T12:12:36.003Z,15.23
2018-12-14T12:14:40.247Z,15.23
2018-12-14T12:16:48.693Z,13.57
2018-12-14T12:18:58.339Z,15.17
2018-12-14T12:21:07.168Z,16.33
2018-12-14T12:23:11.036Z,13.50
2018-12-14T12:25:15.045Z,16.20
2018-12-14T12:27:20.833Z,14.03
2018-12-14T12:29:24.811Z,12.80
2018-12-14T12:31:33.668Z,15.17
2018-12-14T12:33:39.817Z,11.93
2018-12-14T12:35:48.333Z,14.67
2018-12-14T12:37:52.473Z,14.43
2018-12-14T12:39:56.570Z,15.60
2018-12-14T12:42:05.571Z,17.63
2018-12-14T12:44:09.640Z,18.53
2018-12-14T12:46:18.452Z,15.90
2018-12-14T12:48:22.352Z,16.10
2018-12-14T12:50:26.354Z,16.83
2018-12-14T12:52:35.033Z,15.10
2018-12-14T12:54:39.011Z,14.23
2018-12-14T12:56:42.978Z,14.67
2018-12-14T12:58:52.506Z,16.57
2018-12-14T13:00:56.036Z,16.23
2018-12-14T13:03:04.552Z,16.10
2018-12-14T13:05:13.298Z,17.07
2018-12-14T13:07:19.292Z,20.00
2018-12-14T13:09:27.715Z,14.13
2018-12-14T13:11:36.657Z,14.97
2018-12-14T13:13:40.968Z,16.60
2018-12-14T13:15:49.512Z,17.60
2018-12-14T13:17:58.452Z,15.50
2018-12-14T13:20:07.312Z,15.40
2018-12-14T13:22:16.171Z,16.27
2018-12-14T13:24:22.197Z,14.73
2018-12-14T13:26:26.400Z,13.37
2018-12-14T13:28:34.846Z,17.53
2018-12-14T13:30:41.260Z,13.17
2018-12-14T13:32:49.664Z,13.93
2018-12-14T13:34:53.861Z,14.07
2018-12-14T13:36:59.716Z,10.33
2018-12-14T13:39:08.201Z,15.23
2018-12-14T13:41:14.237Z,15.93
2018-12-14T13:43:18.140Z,15.33
2018-12-14T13:45:26.814Z,15.63
2018-12-14T13:47:32.756Z,13.17
2018-12-14T13:49:36.558Z,13.67
2018-12-14T13:51:40.409Z,12.33
2018-12-14T13:53:44.403Z,16.77
2018-12-14T13:55:48.412Z,16.70
2018-12-14T13:57:57.052Z,14.03
2018-12-14T14:00:04.148Z,14.93
2018-12-14T14:02:08.012Z,14.77
2018-12-14T14:04:11.868Z,13.27
2018-12-14T14:06:20.517Z,14.00
2018-12-14T14:08:24.522Z,14.37
2018-12-14T14:10:28.526Z,11.67
2018-12-14T14:12:37.205Z,16.40
2018-12-14T14:14:41.300Z,15.10
2018-12-14T14:16:45.188Z,11.20
2018-12-14T14:18:53.845Z,10.97
2018-12-14T14:20:57.877Z,18.00
2018-12-14T14:23:02.369Z,14.27
2018-12-14T14:25:06.687Z,11.07
2018-12-14T14:27:10.444Z,14.90
2018-12-14T14:29:14.319Z,14.53
2018-12-14T14:31:18.396Z,13.33
2018-12-14T14:33:22.280Z,12.43
2018-12-14T14:35:26.177Z,13.03
2018-12-14T14:37:36.719Z,17.77
2018-12-14T14:39:45.688Z,12.60
2018-12-14T14:41:54.616Z,16.20
2018-12-14T14:44:03.760Z,13.20
2018-12-14T14:46:08.133Z,15.27
2018-12-14T14:48:16.505Z,15.57
2018-12-14T14:50:20.584Z,12.47
2018-12-14T14:52:29.335Z,13.13
2018-12-14T14:54:39.951Z,16.67
2018-12-14T14:56:48.696Z,14.17
2018-12-14T14:58:52.680Z,12.60
2018-12-14T15:00:56.563Z,14.77
2018-12-14T15:03:05.188Z,14.10
2018-12-14T15:05:09.500Z,13.73
2018-12-14T15:07:13.257Z,13.03
2018-12-14T15:09:23.020Z,13.27
2018-12-14T15:11:27.236Z,14.50
2018-12-14T15:13:35.952Z,15.53
2018-12-14T15:15:40.109Z,15.20
2018-12-14T15:17:50.459Z,19.23
2018-12-14T15:19:59.409Z,16.30
2018-12-14T15:22:05.828Z,15.63
2018-12-14T15:24:14.575Z,16.03
2018-12-14T15:26:18.737Z,16.60
2018-12-14T15:28:27.537Z,16.33
2018-12-14T15:30:31.540Z,16.60
2018-12-14T15:32:35.292Z,16.20
2018-12-14T15:34:38.952Z,17.67
2018-12-14T15:36:47.792Z,19.70
2018-12-14T15:38:56.866Z,16.30
2018-12-14T15:41:00.732Z,19.17
2018-12-14T15:43:09.481Z,18.50
2018-12-14T15:45:13.476Z,20.00
2018-12-14T15:47:19.288Z,19.80
2018-12-14T15:49:23.363Z,21.83
2018-12-14T15:51:31.958Z,17.37
2018-12-14T15:53:36.023Z,17.73
2018-12-14T15:55:44.940Z,20.57
2018-12-14T15:57:54.275Z,18.60
2018-12-14T16:00:04.460Z,17.43
2018-12-14T16:02:09.509Z,17.67
2018-12-14T16:04:13.797Z,16.77
2018-12-14T16:06:17.704Z,16.07
2018-12-14T16:08:21.640Z,17.77
2018-12-14T16:10:30.040Z,18.07
2018-12-14T16:12:34.007Z,22.13
2018-12-14T16:14:42.569Z,17.37
2018-12-14T16:16:51.422Z,19.50
2018-12-14T16:19:00.201Z,22.50
2018-12-14T16:21:04.483Z,18.93
2018-12-14T16:23:08.497Z,18.07
2018-12-14T16:25:17.381Z,20.07
2018-12-14T16:27:26.501Z,19.10
2018-12-14T16:29:30.584Z,19.47
2018-12-14T16:31:34.582Z,17.33
2018-12-14T16:33:43.261Z,19.00
2018-12-14T16:35:52.217Z,19.23
2018-12-14T16:38:01.076Z,18.33
2018-12-14T16:40:10.831Z,18.37
2018-12-14T16:42:19.940Z,22.27
2018-12-14T16:44:24.457Z,16.90
2018-12-14T16:46:33.658Z,18.47
2018-12-14T16:48:42.740Z,21.37
2018-12-14T16:50:51.610Z,20.07
2018-12-14T16:52:55.547Z,18.17
2018-12-14T16:55:04.599Z,18.67
2018-12-14T16:57:08.378Z,19.97
2018-12-14T16:59:16.904Z,19.93
2018-12-14T17:01:21.105Z,17.50
2018-12-14T17:03:29.849Z,19.90
2018-12-14T17:05:33.708Z,21.50
2018-12-14T17:07:37.721Z,18.30
2018-12-14T17:09:46.397Z,21.77
2018-12-14T17:11:55.318Z,23.57
2018-12-14T17:14:04.070Z,24.63
2018-12-14T17:16:12.751Z,19.77
2018-12-14T17:18:21.598Z,21.63
2018-12-14T17:20:25.701Z,18.87
2018-12-14T17:22:34.348Z,22.17
2018-12-14T17:24:38.453Z,20.40
2018-12-14T17:26:47.158Z,20.90
2018-12-14T17:28:56.140Z,20.23
2018-12-14T17:31:00.380Z,19.93
2018-12-14T17:33:06.403Z,23.27
2018-12-14T17:35:15.876Z,22.00
2018-12-14T17:37:24.876Z,21.53
2018-12-14T17:39:29.103Z,21.80
2018-12-14T17:41:32.844Z,24.50
2018-12-14T17:43:41.550Z,22.17
2018-12-14T17:45:50.472Z,21.77
2018-12-14T17:47:54.476Z,22.23
2018-12-14T17:49:58.362Z,21.20
2018-12-14T17:52:04.196Z,22.30
2018-12-14T17:54:08.123Z,29.97
2018-12-14T17:56:16.613Z,20.73
2018-12-14T17:58:20.757Z,24.13
2018-12-14T18:00:29.192Z,22.80
2018-12-14T18:02:35.221Z,23.90
2018-12-14T18:04:43.739Z,22.83
2018-12-14T18:06:47.829Z,21.70
2018-12-14T18:08:56.580Z,23.73
2018-12-14T18:11:00.632Z,20.47
2018-12-14T18:13:04.589Z,21.70
2018-12-14T18:15:10.549Z,22.70
2018-12-14T18:17:14.619Z,19.13
2018-12-14T18:19:23.195Z,22.30
2018-12-14T18:21:32.153Z,23.70
2018-12-14T18:23:40.929Z,22.83
2018-12-14T18:25:47.115Z,25.93
2018-12-14T18:27:51.233Z,25.90
2018-12-14T18:29:59.980Z,26.63
2018-12-14T18:32:08.749Z,26.07
2018-12-14T18:34:12.840Z,23.20
2018-12-14T18:36:21.561Z,24.90
2018-12-14T18:38:25.837Z,22.10
2018-12-14T18:40:29.799Z,22.83
2018-12-14T18:42:38.316Z,27.77
2018-12-14T18:44:47.204Z,22.47
2018-12-14T18:46:56.029Z,24.40
2018-12-14T18:57:18.285Z,24.47
2018-12-14T18:59:27.309Z,23.87
2018-12-14T19:01:35.990Z,23.97
2018-12-14T19:03:45.750Z,29.63
2018-12-14T19:05:51.114Z,23.50
2018-12-14T19:08:06.288Z,21.67
2018-12-14T19:10:20.881Z,23.83
2018-12-14T19:12:31.344Z,26.87
2018-12-14T19:14:45.698Z,25.47
2018-12-14T19:17:00.018Z,24.17
2018-12-14T19:19:12.582Z,23.40
2018-12-14T19:21:17.047Z,22.53
2018-12-14T19:23:21.462Z,22.10
2018-12-14T19:25:25.790Z,21.17
2018-12-14T19:27:34.376Z,23.63
2018-12-14T19:29:43.141Z,25.10
2018-12-14T19:31:47.232Z,23.37
2018-12-14T19:33:55.868Z,24.70
2018-12-14T19:36:04.498Z,24.93
2018-12-14T19:38:08.553Z,23.60
2018-12-14T19:40:12.464Z,23.27
2018-12-14T19:42:21.186Z,24.73
2018-12-14T19:44:30.189Z,25.23
2018-12-14T19:46:35.845Z,23.57
2018-12-14T19:48:39.656Z,25.90
2018-12-14T19:50:49.288Z,28.10
2018-12-14T19:52:58.409Z,27.97
2018-12-14T19:55:08.246Z,26.17
2018-12-14T20:01:25.748Z,29.80
2018-12-14T20:03:29.732Z,28.60
2018-12-14T20:05:33.655Z,25.20
2018-12-14T20:07:37.662Z,28.20
2018-12-14T20:09:41.797Z,24.07
2018-12-14T20:11:50.602Z,24.63
2018-12-14T20:13:54.816Z,25.53
2018-12-14T20:16:03.517Z,28.47
2018-12-14T20:18:07.616Z,29.07
2018-12-14T20:20:11.515Z,24.17
2018-12-14T20:22:15.103Z,28.20
2018-12-14T20:24:21.165Z,28.47
2018-12-14T20:26:25.150Z,25.03
2018-12-14T20:28:33.780Z,27.70
2018-12-14T20:30:42.747Z,26.93
2018-12-14T20:32:48.883Z,29.13
2018-12-14T20:34:53.102Z,26.97
2018-12-14T20:36:56.630Z,30.10
2018-12-14T20:39:00.588Z,25.27
2018-12-14T20:41:06.413Z,23.90
2018-12-14T20:43:10.572Z,27.37
2018-12-14T20:45:14.483Z,28.90
2018-12-14T20:47:23.131Z,27.10
2018-12-14T20:49:32.128Z,26.20
2018-12-14T20:51:35.821Z,29.37
2018-12-14T20:53:44.339Z,31.27
2018-12-14T20:55:53.207Z,29.73
2018-12-14T20:57:57.232Z,28.90
2018-12-14T21:00:01.226Z,27.67
2018-12-14T21:04:12.120Z,27.60
2018-12-14T21:06:20.662Z,29.20
2018-12-14T21:08:29.611Z,28.27
2018-12-14T21:10:33.593Z,28.60
2018-12-14T21:12:42.170Z,30.50
2018-12-14T21:14:50.830Z,27.57
2018-12-14T21:16:56.911Z,27.60
2018-12-14T21:19:05.803Z,30.97
2018-12-14T21:21:09.881Z,32.40
2018-12-14T21:23:14.033Z,32.10
2018-12-14T21:25:22.568Z,29.20
2018-12-14T21:27:27.037Z,26.67
2018-12-14T21:29:35.363Z,27.47
2018-12-14T21:31:44.084Z,28.30
2018-12-14T21:33:52.811Z,30.57
2018-12-14T21:36:01.640Z,28.07
2018-12-14T21:38:10.308Z,24.67
2018-12-14T21:40:19.008Z,29.13
2018-12-14T21:42:23.042Z,28.60
2018-12-14T21:44:26.896Z,33.13
2018-12-14T21:46:35.524Z,28.37
2018-12-14T21:48:44.446Z,27.97
2018-12-14T21:50:48.379Z,27.63
2018-12-14T21:52:56.920Z,28.07
2018-12-14T21:55:06.286Z,31.77
2018-12-14T21:57:12.160Z,30.43
2018-12-14T21:59:16.552Z,28.30
2018-12-14T22:01:26.139Z,30.30
2018-12-14T22:05:38.479Z,29.13
2018-12-14T22:07:42.253Z,28.53
2018-12-14T22:09:46.116Z,27.03
2018-12-14T22:11:55.072Z,24.90
2018-12-14T22:13:58.868Z,29.93
2018-12-14T22:16:02.854Z,27.90
2018-12-14T22:18:11.761Z,25.13
2018-12-14T22:20:15.856Z,27.53
2018-12-14T22:22:24.373Z,26.07
2018-12-14T22:24:28.510Z,27.17
2018-12-14T22:26:36.887Z,27.23
2018-12-14T22:28:45.744Z,26.77
2018-12-14T22:30:49.767Z,25.77
2018-12-14T22:32:58.631Z,25.57
2018-12-14T22:35:02.661Z,28.27
2018-12-14T22:37:08.792Z,30.03
2018-12-14T22:39:12.967Z,28.17
2018-12-14T22:41:16.515Z,22.23
2018-12-14T22:43:20.232Z,24.87
2018-12-14T22:45:29.018Z,26.73
2018-12-14T22:47:35.044Z,28.27
2018-12-14T22:49:39.079Z,28.63
2018-12-14T22:51:42.876Z,29.23
2018-12-14T22:53:46.794Z,27.13
2018-12-14T22:55:50.528Z,28.07
2018-12-14T22:57:54.460Z,28.53
2018-12-14T22:59:58.337Z,26.47
2018-12-14T23:02:07.212Z,28.03
2018-12-14T23:04:16.045Z,23.30
2018-12-14T23:06:24.886Z,29.00
2018-12-14T23:08:33.704Z,25.23
2018-12-14T23:10:38.018Z,28.83
2018-12-14T23:12:42.005Z,29.33
2018-12-14T23:14:46.006Z,28.00
2018-12-14T23:16:52.409Z,30.57
2018-12-14T23:18:58.690Z,25.77
2018-12-14T23:21:07.228Z,27.63
2018-12-14T23:23:11.392Z,27.17
2018-12-14T23:25:20.038Z,23.90
2018-12-14T23:27:28.893Z,28.77
2018-12-14T23:29:33.192Z,27.13
2018-12-14T23:31:37.039Z,29.07
2018-12-14T23:33:45.733Z,24.23
2018-12-14T23:35:49.830Z,27.87
2018-12-14T23:37:53.558Z,28.20
2018-12-14T23:39:57.672Z,25.27
2018-12-14T23:42:06.292Z,25.63
2018-12-14T23:44:15.097Z,28.50
2018-12-14T23:46:23.881Z,26.43
2018-12-14T23:48:32.638Z,29.30
2018-12-14T23:50:41.332Z,29.57
2018-12-14T23:52:45.536Z,29.87
2018-12-14T23:54:54.305Z,26.20
2018-12-14T23:57:02.972Z,30.43
2018-12-14T23:59:07.203Z,32.10
